Providence Forge, Virginia
Current Conditions -  °F | °C
As of 6:55 PM on Sunday 21 Dec 2014 (Local Time) from KW96 Reporting Station
Clear Clear  
Wind Chill: 32°   Ceiling: Unl
Heat Index: 32°   Visibility: 10mi
Dew Point: 28°   Wind: 3mph
Humidity: 85%   Direction: 80°E
Pressure: 30.3"   Gusts: NA
Location:  37.44°N, 77.04°W
Report Text: KW96 212355Z AUTO 08003KT 10SM CLR 00/M02 A3030 RMK AO1 T00021020 10068 20000
Loading
Personal Weather Stations






























Interactive Weather Map New forecast layout! Learn more

10-Day Weather Forecast

Advertisements
Track Severe Weather on mobile